• Join FlightAware (Why Join?)
  • Login
  • US Flag 
12:42PM EDT


 

Airport Tracker/Info


-or-


 

Live Flight TrackerFlight Track Log ✈ JIA2385 ✈ 18-Jun-2013 ✈ KDCA - KSAV

Flight Track Log - Related Links

Times and Time Zones

All times are in EDT time to prevent confusion due to time zone crossing. See the JIA2385 flight status page for this flight to view local times or setup timezone preferences in your user account.

Time Position Orientation Groundspeed Altitude Reporting Facility
EDT Latitude Longitude Course Direction KTS MPH feet Rate Location/Type
08:58AM 38.8000 -77.0000 180° South 207 238 2,700  Level Potomac TRACON
08:59AM 38.7500 -76.9500 142° Southeast 269 310 4,400 2,340 Climbing Potomac TRACON
09:00AM 38.5731 -76.7398 142° Southeast  Level FlightAware Approximate
09:00AM 38.7667 -76.8667 76° East 292 336 7,200  Level Potomac TRACON
09:00AM 38.8031 -76.7903 59° Northeast 297 342 8,700 2,100 Climbing Washington Center
09:01AM 38.4890 -76.7078 171° South  Level FlightAware Approximate
09:01AM 38.7519 -76.7069 128° Southeast 308 354 10,900  Level Washington Center
09:02AM 38.3985 -76.7000 180° South  Level FlightAware Approximate
09:02AM 38.6808 -76.7114 183° South 341 392 13,000  Level Washington Center
09:03AM 38.3206 -76.6833 180° South  Level FlightAware Approximate
09:03AM 38.5975 -76.7233 186° South 335 386 14,900  Level Washington Center
09:04AM 38.5119 -76.7219 179° South 319 367 16,900 1,500 Climbing Washington Center
09:05AM 38.4225 -76.7128 175° South 314 361 17,900 780 Climbing Washington Center
09:06AM 38.3286 -76.7006 174° South 327 376 18,500 540 Climbing Washington Center
09:07AM 38.2411 -76.6836 171° South 345 397 19,000 480 Climbing Washington Center
09:08AM 38.1456 -76.6689 173° South 351 404 19,500 480 Climbing Washington Center
09:09AM 38.0456 -76.6569 175° South 356 410 20,000 600 Climbing Washington Center
09:10AM 37.9392 -76.6422 174° South 369 425 20,700 720 Climbing Washington Center
09:11AM 37.8331 -76.6303 175° South 379 436 21,500 780 Climbing Washington Center
09:12AM 37.7247 -76.6131 173° South 386 444 22,300 780 Climbing Washington Center
09:13AM 37.6164 -76.6011 175° South 386 444 23,100 720 Climbing Washington Center
09:14AM 37.5081 -76.5839 173° South 386 444 23,800 660 Climbing Washington Center
09:15AM 37.3975 -76.5694 174° South 391 450 24,500 660 Climbing Washington Center
09:16AM 37.2850 -76.5550 174° South 397 457 25,200 720 Climbing Washington Center
09:17AM 37.1722 -76.5797 190° South 383 441 26,000 660 Climbing Washington Center
09:18AM 37.0900 -76.6647 220° Southwest 376 433 26,600 540 Climbing Washington Center
09:19AM 37.0100 -76.7494 220° Southwest 376 433 27,100 480 Climbing Washington Center
09:20AM 36.9278 -76.8286 218° Southwest 376 433 27,600 480 Climbing Washington Center
09:21AM 36.8478 -76.9103 219° Southwest 376 433 28,100 480 Climbing Washington Center
09:22AM 36.7656 -76.9894 218° Southwest 376 433 28,600 480 Climbing Washington Center
09:23AM 36.6853 -77.0708 219° Southwest 376 433 29,100 480 Climbing Washington Center
09:24AM 36.6028 -77.1494 217° Southwest 376 433 29,600 480 Climbing Washington Center
09:25AM 36.5267 -77.2231 218° Southwest 376 433 30,100 480 Climbing Washington Center
09:26AM 36.4464 -77.3014 218° Southwest 376 433 30,600 480 Climbing Washington Center
09:27AM 36.3639 -77.3794 217° Southwest 376 433 31,100 480 Climbing Washington Center
09:28AM 36.2833 -77.4600 219° Southwest 376 433 31,600 420 Climbing Washington Center
09:29AM 36.2050 -77.5381 219° Southwest 376 433 32,000 180 Climbing Washington Center
09:30AM 36.1222 -77.6158 217° Southwest 376 433 32,000  Level Washington Center
09:31AM 36.0394 -77.6933 217° Southwest 376 433 32,000  Level Washington Center
09:32AM 35.9547 -77.7731 217° Southwest 376 433 32,000  Level Washington Center
09:33AM 35.8719 -77.8528 218° Southwest 376 433 32,000  Level Washington Center
09:34AM 35.7911 -77.9272 217° Southwest 371 427 32,000  Level Washington Center
09:35AM 35.7061 -78.0092 218° Southwest 376 433 32,000  Level Washington Center
09:36AM 35.6231 -78.0833 216° Southwest 376 433 32,000  Level Washington Center
09:37AM 35.5381 -78.1650 218° Southwest 376 433 32,000  Level Washington Center
09:38AM 35.4464 -78.2461 216° Southwest 376 433 32,000  Level Washington Center
09:39AM 35.3611 -78.3247 217° Southwest 376 433 32,000  Level Washington Center
09:40AM 35.2781 -78.4061 219° Southwest 376 433 32,000  Level Washington Center
09:41AM 35.1925 -78.4844 217° Southwest 376 433 32,000  Level Washington Center
09:42AM 35.1094 -78.5625 218° Southwest 381 438 32,000  Level Washington Center
09:43AM 35.0261 -78.6406 217° Southwest 376 433 32,000  Level Washington Center
09:44AM 34.9425 -78.7211 218° Southwest 376 433 32,000  Level Washington Center
09:45AM 34.8569 -78.7989 217° Southwest 376 433 32,000  Level Washington Center
09:48AM 34.6642 -78.9725 217° Southwest 381 438 32,000  Level Jacksonville Center
09:49AM 34.5769 -79.0497 216° Southwest 386 444 32,000  Level Jacksonville Center
09:50AM 34.4858 -79.1419 220° Southwest 386 444 32,000  Level Jacksonville Center
09:51AM 34.3983 -79.2186 216° Southwest 393 452 32,000  Level Jacksonville Center
09:52AM 34.3108 -79.2978 217° Southwest 393 452 32,000 -300 Level Jacksonville Center
09:53AM 34.2236 -79.3767 217° Southwest 393 452 31,500 -840 Descending Jacksonville Center
09:54AM 34.1442 -79.4478 217° Southwest 393 452 30,400 -1,080 Descending Jacksonville Center
09:55AM 34.0586 -79.5236 216° Southwest 387 445 29,400 -1,020 Descending Jacksonville Center
09:56AM 33.9728 -79.5997 216° Southwest 382 440 28,400 -1,020 Descending Jacksonville Center
09:57AM 33.8872 -79.6728 215° Southwest 382 440 27,400 -1,020 Descending Jacksonville Center
09:58AM 33.8036 -79.7508 218° Southwest 382 440 26,400 -1,020 Descending Jacksonville Center
09:59AM 33.7219 -79.8239 217° Southwest 382 440 25,400 -1,020 Descending Jacksonville Center
10:00AM 33.6422 -79.8939 216° Southwest 377 434 24,400 -720 Descending Jacksonville Center
10:01AM 33.5644 -79.9639 217° Southwest 372 428 24,000 -240 Descending Jacksonville Center
10:02AM 33.4867 -80.0311 216° Southwest 359 413 24,000  Level Jacksonville Center
10:03AM 33.4131 -80.0958 216° Southwest 353 406 24,000  Level Jacksonville Center
10:04AM 33.3372 -80.1628 216° Southwest 347 399 24,000  Level Jacksonville Center
10:05AM 33.2636 -80.2269 216° Southwest 347 399 24,000  Level Jacksonville Center
10:06AM 33.1897 -80.2914 216° Southwest 342 394 24,000 -600 Level Jacksonville Center
10:07AM 33.1119 -80.3581 216° Southwest 341 392 22,900 -1,200 Descending Jacksonville Center
10:08AM 33.0231 -80.4125 207° Southwest 355 409 21,700 -1,200 Descending Jacksonville Center
10:09AM 32.9406 -80.4594 206° Southwest 361 415 20,500 -1,620 Descending Jacksonville Center
10:10AM 32.8644 -80.5208 214° Southwest 356 410 18,500 -2,100 Descending Jacksonville Center
10:11AM 32.7947 -80.5844 217° Southwest 337 388 16,400 -2,100 Descending Jacksonville Center
10:12AM 32.7311 -80.6478 220° Southwest 325 374 14,400 -2,040 Descending Jacksonville Center
10:13AM 32.6675 -80.7086 219° Southwest 312 359 12,400 -1,980 Descending Jacksonville Center
10:14AM 32.6058 -80.7669 219° Southwest 295 339 10,500 -1,860 Descending Jacksonville Center
10:15AM 32.5400 -80.8275 218° Southwest 283 326 8,700 -1,260 Descending Jacksonville Center
10:16AM 32.4781 -80.8658 208° Southwest 272 313 8,000 -540 Descending Jacksonville Center
10:17AM 32.4036 -80.9044 204° Southwest 266 306 7,700 -900 Descending Jacksonville Center
10:18AM 32.3325 -80.9011 178° South 274 315 6,200 -1,500 Descending Jacksonville Center
10:19AM 32.2617 -80.9100 186° South 274 315 4,700 -1,800 Descending Jacksonville Center
10:20AM 32.1933 -80.9483 205° Southwest 248 285 2,700 -2,040 Descending Jacksonville Center